Time;durP1;ratioP1;P1;durP2;ratioP2;P2;SDS_P1;SDS_P2;PMS_P1;PMS_P2;Temp;Humidity;BMP_temperature;BMP_pressure;BME280_temperature;BME280_humidity;BME280_pressure;Samples;Min_cycle;Max_cycle;Signal;HPM_P1;HPM_P2
2021/05/29 00:00:42;;;;;;;2.30;1.77;;;12.40;95.20;;;;;;5055500;28;20473;-79
2021/05/29 00:03:08;;;;;;;3.03;2.10;;;12.40;94.90;;;;;;5055495;28;21014;-79
2021/05/29 00:05:35;;;;;;;1.70;1.60;;;12.50;94.70;;;;;;5055766;28;20442;-79
2021/05/29 00:08:01;;;;;;;4.90;2.17;;;12.50;94.60;;;;;;5055330;28;21035;-80
2021/05/29 00:10:27;;;;;;;2.00;1.90;;;12.50;94.70;;;;;;5055585;28;20465;-79
2021/05/29 00:12:53;;;;;;;2.00;1.80;;;12.50;94.50;;;;;;5055681;28;20449;-76
2021/05/29 00:15:20;;;;;;;2.40;1.80;;;12.40;94.90;;;;;;5055594;28;20450;-76
2021/05/29 00:17:47;;;;;;;2.17;1.97;;;12.40;95.20;;;;;;5055589;28;20445;-76
2021/05/29 00:20:14;;;;;;;2.30;2.10;;;12.30;95.90;;;;;;5055181;28;20478;-78
2021/05/29 00:22:40;;;;;;;2.00;1.90;;;12.20;96.30;;;;;;5055173;28;20957;-78
2021/05/29 00:25:07;;;;;;;2.83;2.03;;;12.20;95.80;;;;;;5055463;28;20441;-82
2021/05/29 00:27:34;;;;;;;2.30;1.80;;;12.20;95.60;;;;;;5055357;28;20472;-82
2021/05/29 00:30:00;;;;;;;1.50;1.40;;;12.30;95.80;;;;;;5055102;28;20454;-82
2021/05/29 00:32:26;;;;;;;2.13;2.03;;;12.30;95.70;;;;;;5018690;28;1049308;-82
2021/05/29 00:34:53;;;;;;;2.23;2.13;;;12.30;95.70;;;;;;5056597;28;20546;-82
2021/05/29 00:37:19;;;;;;;2.47;2.37;;;12.30;96.00;;;;;;5056553;28;20449;-80
2021/05/29 00:39:46;;;;;;;2.17;2.03;;;12.20;96.00;;;;;;5056674;28;20848;-79
2021/05/29 00:42:12;;;;;;;4.00;2.00;;;12.20;97.10;;;;;;5056156;28;20456;-79
2021/05/29 00:44:46;;;;;;;1.90;1.80;;;12.20;97.30;;;;;;5056391;28;20448;-79
2021/05/29 00:47:12;;;;;;;2.43;2.33;;;12.20;98.40;;;;;;5056277;28;20885;-79
2021/05/29 00:49:38;;;;;;;1.90;1.80;;;12.10;97.90;;;;;;5056248;28;20457;-79
2021/05/29 00:52:06;;;;;;;2.20;2.10;;;12.10;98.20;;;;;;5056283;28;20449;-79
2021/05/29 00:54:32;;;;;;;2.40;2.20;;;12.00;98.10;;;;;;5056231;28;20449;-78
2021/05/29 00:56:58;;;;;;;2.30;2.10;;;12.00;98.80;;;;;;5056192;28;20457;-79
2021/05/29 00:59:25;;;;;;;2.03;1.90;;;12.00;98.10;;;;;;5055843;28;20449;-79
2021/05/29 01:01:51;;;;;;;2.03;1.93;;;12.00;99.10;;;;;;5056016;28;20481;-79
2021/05/29 01:04:17;;;;;;;1.90;1.80;;;12.00;99.50;;;;;;5056321;28;20445;-79
2021/05/29 01:06:43;;;;;;;3.07;2.27;;;12.00;99.60;;;;;;5055660;28;21023;-79
2021/05/29 01:09:11;;;;;;;2.80;2.03;;;12.00;99.80;;;;;;5056197;28;20439;-79
2021/05/29 01:11:37;;;;;;;2.00;1.90;;;12.00;99.90;;;;;;5055540;28;20473;-79
2021/05/29 01:14:03;;;;;;;2.30;2.20;;;12.00;99.90;;;;;;5055896;28;20477;-79
2021/05/29 01:19:15;;;;;;;1.93;1.83;;;11.90;99.90;;;;;;5055528;28;20525;-78
2021/05/29 01:21:41;;;;;;;2.67;2.47;;;11.90;99.90;;;;;;5055517;28;20842;-78
2021/05/29 01:24:08;;;;;;;1.80;1.70;;;12.00;99.90;;;;;;5055933;28;20442;-78
2021/05/29 01:26:35;;;;;;;2.00;1.87;;;11.90;99.90;;;;;;5055288;28;20481;-79
2021/05/29 01:29:01;;;;;;;2.70;2.10;;;11.90;99.90;;;;;;5055883;28;20449;-79
2021/05/29 01:31:29;;;;;;;2.77;2.00;;;11.90;99.90;;;;;;5055021;28;20461;-79
2021/05/29 01:33:57;;;;;;;1.87;1.77;;;11.90;99.90;;;;;;5055484;28;20446;-79
2021/05/29 01:36:24;;;;;;;1.83;1.73;;;11.90;99.90;;;;;;5055474;28;20452;-79
2021/05/29 01:38:51;;;;;;;1.80;1.70;;;11.90;99.90;;;;;;5055348;28;20496;-79
2021/05/29 01:41:20;;;;;;;3.07;2.40;;;11.90;99.90;;;;;;5055283;28;20474;-79
2021/05/29 01:43:49;;;;;;;2.40;2.20;;;11.90;99.90;;;;;;5054989;28;20457;-79
2021/05/29 01:46:18;;;;;;;2.77;2.00;;;11.80;99.90;;;;;;5055194;28;21013;-82
2021/05/29 01:48:46;;;;;;;3.03;1.97;;;11.80;99.90;;;;;;5054925;28;20430;-82
2021/05/29 01:51:14;;;;;;;3.13;2.10;;;11.80;99.90;;;;;;5055118;28;20477;-82
2021/05/29 01:53:41;;;;;;;2.30;2.10;;;11.80;99.90;;;;;;5054898;28;20434;-82
2021/05/29 01:56:08;;;;;;;2.03;1.80;;;11.80;99.90;;;;;;5054806;28;20945;-76
2021/05/29 01:58:37;;;;;;;3.07;2.10;;;11.80;99.90;;;;;;5055011;28;20461;-76
2021/05/29 02:01:04;;;;;;;2.30;2.20;;;11.80;99.90;;;;;;5054714;28;20525;-76
2021/05/29 02:03:30;;;;;;;2.40;1.77;;;11.80;99.90;;;;;;5054939;28;20462;-76
2021/05/29 02:05:56;;;;;;;1.83;1.73;;;11.80;99.90;;;;;;5054890;28;20507;-76
2021/05/29 02:08:23;;;;;;;2.47;2.20;;;11.70;99.90;;;;;;5054787;28;20485;-76
2021/05/29 02:10:50;;;;;;;2.57;2.37;;;11.70;99.90;;;;;;5054386;28;21015;-76
2021/05/29 02:13:23;;;;;;;2.90;1.53;;;11.70;99.90;;;;;;5054787;28;20526;-76
2021/05/29 02:15:51;;;;;;;2.00;1.90;;;11.70;99.90;;;;;;5054408;28;20802;-76
2021/05/29 02:18:17;;;;;;;2.50;2.00;;;11.70;99.90;;;;;;5054587;28;20929;-76
2021/05/29 02:20:45;;;;;;;2.23;1.70;;;11.70;99.90;;;;;;5054528;28;20474;-76
2021/05/29 02:23:14;;;;;;;2.00;1.90;;;11.70;99.90;;;;;;5053510;28;20953;-76
2021/05/29 02:25:41;;;;;;;3.23;2.47;;;11.60;99.90;;;;;;5054537;28;20450;-79
2021/05/29 02:28:07;;;;;;;1.97;1.80;;;11.60;99.90;;;;;;5054087;28;20481;-79
2021/05/29 02:30:34;;;;;;;2.47;2.30;;;11.60;99.90;;;;;;5054521;28;20462;-79
2021/05/29 02:33:03;;;;;;;2.07;1.97;;;11.60;99.90;;;;;;5054165;28;20684;-79
2021/05/29 02:35:29;;;;;;;2.00;1.90;;;11.60;99.90;;;;;;5054318;28;20442;-79
2021/05/29 02:37:55;;;;;;;2.93;1.73;;;11.60;99.90;;;;;;5053969;28;20446;-79
2021/05/29 02:40:22;;;;;;;2.10;1.80;;;11.60;99.90;;;;;;5054134;28;20470;-79
2021/05/29 02:42:48;;;;;;;2.20;2.10;;;11.60;99.90;;;;;;5054590;28;20535;-79
2021/05/29 02:45:15;;;;;;;2.10;1.87;;;11.50;99.90;;;;;;5054099;28;20453;-79
2021/05/29 02:47:41;;;;;;;2.07;1.93;;;11.60;99.90;;;;;;5053996;28;20488;-79
2021/05/29 02:50:10;;;;;;;1.80;1.70;;;11.50;99.90;;;;;;5053989;28;20466;-79
2021/05/29 02:52:37;;;;;;;2.23;2.03;;;11.50;99.90;;;;;;5053718;28;20944;-79
2021/05/29 02:55:04;;;;;;;4.90;2.13;;;11.40;99.90;;;;;;5053673;28;20866;-79
2021/05/29 02:57:30;;;;;;;2.20;2.10;;;11.40;99.90;;;;;;5053787;28;20450;-79
2021/05/29 02:59:57;;;;;;;1.93;1.83;;;11.40;99.90;;;;;;5053538;28;20984;-78
2021/05/29 03:02:24;;;;;;;2.70;1.90;;;11.40;99.90;;;;;;5053559;28;20453;-78
2021/05/29 03:04:50;;;;;;;2.13;2.03;;;11.40;99.90;;;;;;5053806;28;20539;-78
2021/05/29 03:07:17;;;;;;;1.97;1.87;;;11.40;99.90;;;;;;5053733;28;20485;-78
2021/05/29 03:09:45;;;;;;;1.87;1.77;;;11.30;99.90;;;;;;5053680;28;20441;-78
2021/05/29 03:12:12;;;;;;;2.30;2.10;;;11.40;99.90;;;;;;5053679;28;20857;-78
2021/05/29 03:14:38;;;;;;;1.70;1.60;;;11.30;99.90;;;;;;5053403;28;20450;-79
2021/05/29 03:17:04;;;;;;;2.20;2.10;;;11.30;99.90;;;;;;5053619;28;20442;-79
2021/05/29 03:19:31;;;;;;;2.23;1.90;;;11.30;99.90;;;;;;5053487;28;20450;-79
2021/05/29 03:21:57;;;;;;;2.37;2.23;;;11.30;99.90;;;;;;5053571;28;20442;-82
2021/05/29 03:24:24;;;;;;;1.90;1.70;;;11.20;99.90;;;;;;5053192;28;20964;-82
2021/05/29 03:26:50;;;;;;;2.90;2.50;;;11.20;99.90;;;;;;5053416;28;20893;-82
2021/05/29 03:29:16;;;;;;;2.93;2.73;;;11.10;99.90;;;;;;5053424;28;20448;-82
2021/05/29 03:31:43;;;;;;;1.83;1.73;;;11.10;99.90;;;;;;5052902;28;20533;-82
2021/05/29 03:34:09;;;;;;;2.60;2.40;;;11.10;99.90;;;;;;5053258;28;20924;-82
2021/05/29 03:36:36;;;;;;;2.50;1.97;;;11.10;99.90;;;;;;5053051;28;21006;-82
2021/05/29 03:39:03;;;;;;;2.37;2.17;;;11.10;99.90;;;;;;5053279;28;20458;-82
2021/05/29 03:41:30;;;;;;;2.67;2.47;;;11.10;99.90;;;;;;5052964;28;20461;-82
2021/05/29 03:43:56;;;;;;;2.40;1.93;;;11.10;99.90;;;;;;5053054;28;20449;-82
2021/05/29 03:46:22;;;;;;;2.77;1.90;;;11.10;99.90;;;;;;5053110;28;20445;-82
2021/05/29 03:48:48;;;;;;;2.57;2.17;;;11.20;99.90;;;;;;5053154;28;20499;-80
2021/05/29 03:51:15;;;;;;;2.43;2.33;;;11.20;99.90;;;;;;5053104;28;20473;-79
2021/05/29 03:53:41;;;;;;;2.47;2.27;;;11.20;99.90;;;;;;5053137;28;20464;-79
2021/05/29 03:56:08;;;;;;;2.07;1.97;;;11.30;99.90;;;;;;5053106;28;20453;-79
2021/05/29 03:58:35;;;;;;;2.73;2.53;;;11.30;99.90;;;;;;5053253;28;20945;-79
2021/05/29 04:01:01;;;;;;;2.97;2.67;;;11.30;99.90;;;;;;5053041;28;20825;-79
2021/05/29 04:03:27;;;;;;;3.13;2.50;;;11.40;99.90;;;;;;5053051;28;20462;-79
2021/05/29 04:05:54;;;;;;;3.03;2.40;;;11.40;99.90;;;;;;5053034;28;20450;-79
2021/05/29 04:08:20;;;;;;;2.67;2.47;;;11.50;99.90;;;;;;5052607;28;20820;-79
2021/05/29 04:10:48;;;;;;;2.90;2.70;;;11.50;99.90;;;;;;5052919;28;20470;-79
2021/05/29 04:13:14;;;;;;;2.90;2.70;;;11.50;99.90;;;;;;5053298;28;20446;-79
2021/05/29 04:15:41;;;;;;;2.83;2.63;;;11.50;99.90;;;;;;5052939;28;20450;-79
2021/05/29 04:18:08;;;;;;;3.00;2.80;;;11.50;99.90;;;;;;5052659;28;20449;-82
2021/05/29 04:20:34;;;;;;;2.43;2.23;;;11.50;99.90;;;;;;5052883;28;20465;-82
2021/05/29 04:23:00;;;;;;;2.63;2.43;;;11.60;99.90;;;;;;5052595;28;20975;-80
2021/05/29 04:25:28;;;;;;;3.63;2.17;;;11.70;99.90;;;;;;5052857;28;20450;-79
2021/05/29 04:27:55;;;;;;;3.30;2.50;;;11.80;99.90;;;;;;5052834;28;20491;-79
2021/05/29 04:30:25;;;;;;;3.03;2.83;;;11.80;99.90;;;;;;5052760;28;20477;-79
2021/05/29 04:32:52;;;;;;;2.73;2.17;;;11.90;99.90;;;;;;5052521;28;20470;-79
2021/05/29 04:35:19;;;;;;;3.03;2.70;;;12.00;99.90;;;;;;5052499;28;20452;-78
2021/05/29 04:37:47;;;;;;;2.30;2.20;;;12.10;99.90;;;;;;5052438;28;20491;-78
2021/05/29 04:40:15;;;;;;;2.80;2.60;;;12.10;99.90;;;;;;5052631;28;20474;-79
2021/05/29 04:42:41;;;;;;;2.83;2.57;;;12.20;99.90;;;;;;5052414;28;20450;-79
2021/05/29 04:45:10;;;;;;;2.43;2.33;;;12.30;99.90;;;;;;5053785;28;20511;-79
2021/05/29 04:47:37;;;;;;;3.27;2.60;;;12.40;99.90;;;;;;5056417;28;20496;-79
2021/05/29 04:50:05;;;;;;;2.40;2.30;;;12.60;99.90;;;;;;5056307;28;20469;-79
2021/05/29 04:52:31;;;;;;;2.50;2.27;;;12.70;99.90;;;;;;5056311;28;20446;-79
2021/05/29 04:54:58;;;;;;;5.43;1.90;;;12.70;99.90;;;;;;5056215;28;20450;-80
2021/05/29 04:57:24;;;;;;;2.40;2.20;;;13.00;99.90;;;;;;5056226;28;20445;-80
2021/05/29 04:59:50;;;;;;;2.20;2.00;;;13.10;99.90;;;;;;5056380;28;20473;-78
2021/05/29 05:02:16;;;;;;;1.80;1.70;;;13.20;99.90;;;;;;5056047;28;20446;-78
2021/05/29 05:04:42;;;;;;;2.13;2.03;;;13.40;99.90;;;;;;5056036;28;20446;-78
2021/05/29 05:07:10;;;;;;;2.50;1.90;;;13.40;99.90;;;;;;5055628;28;21004;-76
2021/05/29 05:09:36;;;;;;;1.73;1.63;;;13.40;99.90;;;;;;5055689;28;20531;-77
2021/05/29 05:12:02;;;;;;;1.50;1.40;;;13.60;99.90;;;;;;5055658;28;20945;-82
2021/05/29 05:14:29;;;;;;;1.70;1.57;;;13.70;99.90;;;;;;5055639;28;20434;-82
2021/05/29 05:16:55;;;;;;;1.67;1.57;;;13.90;99.90;;;;;;5055812;28;20492;-81
2021/05/29 05:19:21;;;;;;;2.07;1.97;;;14.00;99.90;;;;;;5055842;28;20461;-76
2021/05/29 05:21:48;;;;;;;2.07;1.97;;;14.00;99.90;;;;;;5055640;28;20466;-76
2021/05/29 05:24:15;;;;;;;1.73;1.63;;;14.10;99.90;;;;;;5055700;28;20567;-77
2021/05/29 05:26:41;;;;;;;1.60;1.50;;;14.10;99.90;;;;;;5055266;28;20456;-77
2021/05/29 05:29:07;;;;;;;2.53;1.63;;;14.20;99.90;;;;;;5055578;28;20454;-77
2021/05/29 05:31:35;;;;;;;3.03;1.80;;;14.30;99.90;;;;;;5055319;28;20482;-77
2021/05/29 05:34:07;;;;;;;1.70;1.60;;;14.50;99.90;;;;;;5055268;28;20440;-82
2021/05/29 05:36:33;;;;;;;1.67;1.57;;;14.70;99.90;;;;;;5055495;28;20438;-81
2021/05/29 05:38:59;;;;;;;1.47;1.40;;;14.60;99.90;;;;;;5055645;28;20453;-81
2021/05/29 05:41:27;;;;;;;3.63;1.53;;;14.60;99.90;;;;;;5055315;28;20476;-82
2021/05/29 05:43:53;;;;;;;3.10;1.70;;;14.40;99.90;;;;;;5055317;28;20508;-82
2021/05/29 05:46:20;;;;;;;1.63;1.53;;;14.40;99.90;;;;;;5055254;28;20446;-83
2021/05/29 05:48:46;;;;;;;2.07;1.97;;;14.50;99.90;;;;;;5055130;28;20500;-82
2021/05/29 05:51:13;;;;;;;1.80;1.70;;;14.60;99.90;;;;;;5055278;28;20473;-81
2021/05/29 05:53:39;;;;;;;2.03;1.90;;;14.70;99.90;;;;;;5055203;28;20496;-80
2021/05/29 05:56:06;;;;;;;1.77;1.67;;;14.90;99.90;;;;;;5054385;28;20450;-79
2021/05/29 05:58:35;;;;;;;1.40;1.40;;;15.20;99.50;;;;;;5054674;28;20473;-79
2021/05/29 06:01:03;;;;;;;1.60;1.50;;;15.30;99.20;;;;;;5054977;28;20469;-79
2021/05/29 06:03:29;;;;;;;2.17;2.07;;;15.30;98.60;;;;;;5054631;28;20814;-79
2021/05/29 06:05:55;;;;;;;1.93;1.33;;;15.20;97.70;;;;;;5054907;28;20449;-81
2021/05/29 06:08:23;;;;;;;1.37;1.27;;;15.20;97.90;;;;;;5054824;28;20481;-81
2021/05/29 06:10:49;;;;;;;1.93;1.60;;;15.40;97.30;;;;;;5054767;28;20472;-81
2021/05/29 06:13:28;;;;;;;1.70;1.60;;;15.50;97.30;;;;;;5054768;28;20453;-82
2021/05/29 06:19:09;;;;;;;1.70;1.60;;;16.30;95.10;;;;;;5054589;28;20410;-81
2021/05/29 06:21:35;;;;;;;1.43;1.33;;;16.70;93.80;;;;;;5054654;28;20559;-78
2021/05/29 06:24:02;;;;;;;1.40;1.10;;;17.20;93.10;;;;;;5054260;28;20465;-78
2021/05/29 06:26:29;;;;;;;1.67;1.57;;;17.80;91.40;;;;;;5054413;28;20445;-78
2021/05/29 06:28:55;;;;;;;1.47;1.37;;;18.30;90.20;;;;;;5054480;28;20515;-79
2021/05/29 06:31:22;;;;;;;1.57;1.43;;;19.00;87.90;;;;;;5054157;28;20453;-78
2021/05/29 06:33:48;;;;;;;1.40;1.30;;;19.70;81.40;;;;;;5053958;28;20485;-78
2021/05/29 06:36:15;;;;;;;1.83;1.73;;;20.20;77.90;;;;;;5054372;28;20206;-79
2021/05/29 06:38:41;;;;;;;1.42;1.33;;;20.60;75.30;;;;;;5054425;28;20198;-77
2021/05/29 06:41:07;;;;;;;1.15;1.15;;;20.90;72.50;;;;;;5054208;28;20226;-76
2021/05/29 06:43:33;;;;;;;1.75;1.65;;;21.00;69.60;;;;;;5054197;28;20205;-77
2021/05/29 06:46:00;;;;;;;1.70;1.60;;;21.50;68.00;;;;;;5053878;28;20688;-78
2021/05/29 06:48:27;;;;;;;1.58;1.48;;;22.10;62.60;;;;;;5053989;28;20723;-77
2021/05/29 06:50:55;;;;;;;1.50;1.40;;;22.50;60.70;;;;;;5054057;28;20229;-77
2021/05/29 06:53:25;;;;;;;1.60;1.50;;;22.80;60.50;;;;;;5054059;28;20580;-77
2021/05/29 06:58:48;;;;;;;1.30;1.30;;;23.60;56.70;;;;;;5053806;28;20228;-80
2021/05/29 07:01:14;;;;;;;1.40;1.30;;;24.10;54.40;;;;;;5053919;28;20226;-80
2021/05/29 07:03:41;;;;;;;1.35;1.25;;;24.20;52.30;;;;;;5053554;28;20697;-80
2021/05/29 07:06:08;;;;;;;1.50;1.40;;;24.70;50.90;;;;;;5053849;28;20256;-80
2021/05/29 07:08:34;;;;;;;1.80;1.55;;;25.30;49.60;;;;;;5053318;28;20228;-80
2021/05/29 07:11:00;;;;;;;1.40;1.30;;;25.70;50.80;;;;;;5053708;28;20226;-80
2021/05/29 07:13:26;;;;;;;2.22;1.80;;;26.40;46.90;;;;;;5053779;28;20269;-81
2021/05/29 07:15:53;;;;;;;1.35;1.30;;;26.80;45.20;;;;;;5053405;28;20203;-80
2021/05/29 07:18:22;;;;;;;1.52;1.42;;;26.80;45.30;;;;;;5053632;28;20199;-77
2021/05/29 07:20:49;;;;;;;1.58;1.35;;;27.20;45.80;;;;;;5053508;28;20224;-77
2021/05/29 07:23:15;;;;;;;1.10;1.10;;;27.60;44.00;;;;;;5053221;28;20211;-77
2021/05/29 07:25:42;;;;;;;1.27;1.15;;;27.90;43.90;;;;;;5053508;28;20199;-77
2021/05/29 07:28:08;;;;;;;0.90;0.90;;;28.50;42.00;;;;;;5053763;28;20219;-81
2021/05/29 07:30:35;;;;;;;1.50;1.50;;;29.20;41.30;;;;;;5053113;28;20229;-81
2021/05/29 07:33:01;;;;;;;1.50;1.20;;;29.80;39.20;;;;;;5053229;28;20245;-78
2021/05/29 07:35:28;;;;;;;1.23;1.08;;;30.10;38.80;;;;;;5054354;28;20533;-78
2021/05/29 07:37:55;;;;;;;1.00;0.90;;;31.00;35.90;;;;;;5052717;28;20972;-78
2021/05/29 07:40:21;;;;;;;1.70;1.08;;;31.50;34.60;;;;;;5053267;28;20608;-78
2021/05/29 07:42:48;;;;;;;1.23;1.23;;;31.80;34.20;;;;;;5053266;28;20215;-78
2021/05/29 07:45:15;;;;;;;1.20;1.20;;;32.20;33.20;;;;;;5053311;28;20207;-78
2021/05/29 07:47:41;;;;;;;1.30;1.20;;;32.20;34.40;;;;;;5053228;28;20594;-78
2021/05/29 07:50:09;;;;;;;1.00;1.00;;;32.60;34.30;;;;;;5052989;28;20276;-78
2021/05/29 07:52:36;;;;;;;1.50;1.15;;;33.40;32.50;;;;;;5052936;28;20206;-78
2021/05/29 07:55:04;;;;;;;1.10;1.10;;;33.40;31.60;;;;;;5053053;28;20213;-78
2021/05/29 07:57:32;;;;;;;1.17;1.15;;;33.00;31.10;;;;;;5053032;28;20597;-79
2021/05/29 07:59:58;;;;;;;1.30;1.30;;;32.80;32.40;;;;;;5052681;28;20778;-79
2021/05/29 08:02:25;;;;;;;1.25;1.25;;;33.10;32.10;;;;;;5053073;28;20197;-79
2021/05/29 08:04:51;;;;;;;1.10;1.10;;;33.30;32.60;;;;;;5053068;28;20203;-79
2021/05/29 08:07:17;;;;;;;1.45;1.38;;;33.40;31.60;;;;;;5052785;28;20198;-78
2021/05/29 08:09:44;;;;;;;1.30;1.20;;;33.50;30.20;;;;;;5053010;28;20572;-78
2021/05/29 08:12:11;;;;;;;1.27;1.27;;;33.40;30.30;;;;;;5052807;28;20206;-82
2021/05/29 08:14:38;;;;;;;1.42;1.42;;;33.30;29.90;;;;;;5053074;28;20253;-83
2021/05/29 08:17:05;;;;;;;1.05;1.05;;;32.80;31.80;;;;;;5052998;28;20219;-84
2021/05/29 08:19:31;;;;;;;1.60;1.50;;;32.40;31.80;;;;;;5053268;28;20213;-84
2021/05/29 08:21:58;;;;;;;1.20;1.10;;;31.60;31.00;;;;;;5057012;28;20211;-83
2021/05/29 08:24:25;;;;;;;1.23;1.13;;;31.40;31.40;;;;;;5056595;28;20675;-83
2021/05/29 08:26:52;;;;;;;2.05;1.30;;;30.90;32.10;;;;;;5056800;28;20210;-83
2021/05/29 08:29:19;;;;;;;0.95;0.93;;;31.20;32.50;;;;;;5056668;28;20228;-82
2021/05/29 08:31:45;;;;;;;3.05;1.10;;;31.30;31.80;;;;;;5056300;28;20229;-83
2021/05/29 08:34:12;;;;;;;1.60;1.40;;;31.10;32.30;;;;;;5057003;28;20187;-84
2021/05/29 08:36:40;;;;;;;1.63;1.52;;;30.60;32.70;;;;;;5056858;28;20206;-83
2021/05/29 08:39:08;;;;;;;1.15;1.15;;;29.90;32.80;;;;;;5056108;28;20237;-83
2021/05/29 08:41:36;;;;;;;1.48;1.35;;;28.30;34.60;;;;;;5056359;28;20310;-83
2021/05/29 08:44:03;;;;;;;1.30;1.20;;;26.70;36.70;;;;;;5056373;28;20207;-83
2021/05/29 08:46:30;;;;;;;1.20;1.10;;;25.50;38.70;;;;;;5056632;28;20199;-84
2021/05/29 08:48:57;;;;;;;1.67;1.13;;;24.60;39.60;;;;;;5056310;28;20207;-82
2021/05/29 08:51:24;;;;;;;1.60;1.08;;;24.20;39.50;;;;;;5056398;28;20222;-83
2021/05/29 08:53:52;;;;;;;2.15;1.33;;;25.00;40.60;;;;;;5056048;28;20674;-81
2021/05/29 08:56:19;;;;;;;1.17;1.15;;;26.30;37.60;;;;;;5056269;28;20207;-83
2021/05/29 08:58:46;;;;;;;1.20;1.10;;;26.70;36.50;;;;;;5056144;28;20226;-83
2021/05/29 09:01:13;;;;;;;1.40;1.30;;;25.80;36.20;;;;;;5055847;28;20230;-83
2021/05/29 09:03:43;;;;;;;1.23;1.00;;;24.60;37.80;;;;;;5056313;28;20225;-83
2021/05/29 09:06:10;;;;;;;1.20;1.10;;;23.30;38.60;;;;;;5056175;28;20207;-83
2021/05/29 09:08:47;;;;;;;1.30;1.20;;;22.50;40.20;;;;;;5056207;28;20210;-83
2021/05/29 09:11:15;;;;;;;1.30;1.20;;;22.20;41.70;;;;;;5056084;28;20464;-83
2021/05/29 09:13:41;;;;;;;1.30;1.30;;;22.00;42.60;;;;;;5055827;28;20441;-80
2021/05/29 09:16:08;;;;;;;2.40;1.20;;;21.80;42.40;;;;;;5056001;28;20457;-82
2021/05/29 09:18:37;;;;;;;1.23;1.23;;;21.50;40.80;;;;;;5055804;28;20531;-82
2021/05/29 09:21:33;;;;;;;1.20;1.10;;;21.20;41.20;;;;;;5055786;28;20465;-82
2021/05/29 09:24:02;;;;;;;1.93;1.27;;;21.00;42.00;;;;;;5031902;28;20957;-81
2021/05/29 09:26:44;;;;;;;1.90;1.27;;;21.20;43.10;;;;;;5055814;28;20500;-80
2021/05/29 09:29:17;;;;;;;1.30;1.30;;;21.50;43.70;;;;;;5055702;28;20945;-80
2021/05/29 09:31:55;;;;;;;1.33;1.20;;;21.70;43.80;;;;;;5055586;28;20469;-80
2021/05/29 09:34:33;;;;;;;1.70;1.10;;;21.50;43.70;;;;;;5055563;28;20450;-78
2021/05/29 09:37:06;;;;;;;1.30;1.30;;;21.10;44.00;;;;;;5055474;28;20434;-78
2021/05/29 09:39:34;;;;;;;1.60;1.50;;;20.60;44.50;;;;;;5055405;28;20440;-77
2021/05/29 09:42:01;;;;;;;1.13;1.10;;;20.30;45.30;;;;;;5055381;28;20454;-77
2021/05/29 09:44:28;;;;;;;1.33;1.23;;;19.90;45.50;;;;;;5055406;28;20525;-78
2021/05/29 09:46:56;;;;;;;1.40;1.30;;;19.60;46.20;;;;;;5055290;28;20454;-80
2021/05/29 09:49:25;;;;;;;1.50;1.40;;;19.50;47.00;;;;;;5055250;28;20454;-81
2021/05/29 09:51:51;;;;;;;1.07;1.07;;;19.60;45.70;;;;;;5055247;28;20506;-78
2021/05/29 09:54:18;;;;;;;1.50;1.40;;;19.70;45.50;;;;;;5054831;28;20813;-79
2021/05/29 09:56:45;;;;;;;1.10;1.00;;;19.80;44.60;;;;;;5055112;28;20808;-78
2021/05/29 09:59:13;;;;;;;0.97;0.97;;;20.00;45.50;;;;;;5055023;28;20497;-78
2021/05/29 10:01:42;;;;;;;1.20;1.20;;;20.50;46.20;;;;;;5054946;28;20547;-79
2021/05/29 10:04:10;;;;;;;1.00;1.00;;;21.10;44.70;;;;;;5055001;28;20454;-80
2021/05/29 10:06:36;;;;;;;0.97;0.97;;;21.50;43.40;;;;;;5054932;28;20446;-80
2021/05/29 10:09:05;;;;;;;1.20;1.20;;;21.40;42.80;;;;;;5054560;28;20446;-81
2021/05/29 10:11:35;;;;;;;1.70;1.60;;;21.20;44.50;;;;;;5054500;28;20993;-81
2021/05/29 10:14:02;;;;;;;0.93;0.93;;;21.10;44.40;;;;;;5055392;28;20454;-82
2021/05/29 10:16:28;;;;;;;1.67;1.57;;;21.50;44.10;;;;;;5055266;28;20450;-77
2021/05/29 10:19:00;;;;;;;1.50;1.40;;;21.80;46.20;;;;;;5054605;28;20482;-79
2021/05/29 10:21:30;;;;;;;1.50;1.40;;;21.80;45.30;;;;;;5055084;28;20462;-79
2021/05/29 10:23:59;;;;;;;1.17;1.17;;;21.50;45.60;;;;;;5054532;28;20442;-79
2021/05/29 10:26:27;;;;;;;2.00;1.50;;;21.10;46.30;;;;;;5054551;28;20450;-78
2021/05/29 10:28:55;;;;;;;2.53;2.30;;;20.70;46.10;;;;;;5054546;28;20442;-82
2021/05/29 10:31:22;;;;;;;3.10;2.80;;;20.30;47.20;;;;;;5056015;28;20469;-82
2021/05/29 10:33:49;;;;;;;1.97;1.87;;;20.10;49.70;;;;;;5056073;28;20477;-82
2021/05/29 10:36:43;;;;;;;1.67;1.57;;;20.20;49.00;;;;;;5055090;28;20532;-82
2021/05/29 10:39:11;;;;;;;1.77;1.40;;;20.60;49.10;;;;;;5055023;28;20561;-81
2021/05/29 10:42:04;;;;;;;1.67;1.57;;;20.90;47.40;;;;;;5054623;28;20981;-82
2021/05/29 10:44:42;;;;;;;1.30;1.20;;;21.00;46.70;;;;;;5054485;28;20434;-81
2021/05/29 10:47:15;;;;;;;1.93;1.73;;;21.10;48.40;;;;;;5054376;28;20990;-81
2021/05/29 10:49:54;;;;;;;1.77;1.23;;;21.30;46.70;;;;;;5054150;28;20441;-82
2021/05/29 10:52:54;;;;;;;2.40;1.50;;;21.60;44.50;;;;;;5054229;28;20434;-79
2021/05/29 10:55:23;;;;;;;1.60;1.50;;;21.80;46.50;;;;;;5012091;28;20436;-79
2021/05/29 10:57:50;;;;;;;2.03;1.93;;;21.70;45.90;;;;;;5012085;28;20494;-79
2021/05/29 11:00:49;;;;;;;1.77;1.67;;;21.30;45.80;;;;;;5031449;28;20542;-81
2021/05/29 11:03:27;;;;;;;1.40;1.30;;;20.70;46.70;;;;;;5054183;28;20449;-78
2021/05/29 11:05:56;;;;;;;2.43;1.30;;;20.10;47.60;;;;;;5053807;28;20441;-80
2021/05/29 11:08:45;;;;;;;1.63;1.53;;;19.80;47.90;;;;;;5053844;28;20473;-81
2021/05/29 11:11:48;;;;;;;1.87;1.77;;;19.50;49.00;;;;;;5053676;28;20454;-80
2021/05/29 11:14:15;;;;;;;1.53;1.43;;;19.60;49.30;;;;;;5053412;28;21047;-81
2021/05/29 11:17:07;;;;;;;2.90;1.30;;;19.80;48.90;;;;;;5053621;28;20549;-81
2021/05/29 11:19:35;;;;;;;3.20;1.53;;;20.00;50.80;;;;;;5053567;28;20503;-81
2021/05/29 11:22:04;;;;;;;1.87;1.40;;;20.40;50.10;;;;;;5053535;28;20450;-81
2021/05/29 11:24:32;;;;;;;1.03;1.03;;;20.60;49.40;;;;;;5053479;28;20446;-81
2021/05/29 11:26:59;;;;;;;3.20;1.40;;;20.50;48.10;;;;;;5053514;28;20450;-80
2021/05/29 11:29:25;;;;;;;1.63;1.53;;;20.20;48.80;;;;;;5053959;28;20446;-82
2021/05/29 11:31:53;;;;;;;2.13;1.43;;;20.20;48.70;;;;;;5055141;28;20481;-82
2021/05/29 11:34:19;;;;;;;1.60;1.50;;;20.30;49.30;;;;;;5054993;28;20458;-82
2021/05/29 11:36:46;;;;;;;1.37;1.27;;;20.30;48.00;;;;;;5053543;28;20472;-77
2021/05/29 11:39:16;;;;;;;1.43;1.33;;;20.30;48.50;;;;;;5052991;28;20484;-77
2021/05/29 11:41:43;;;;;;;2.00;1.37;;;20.40;51.20;;;;;;5053205;28;20473;-77
2021/05/29 11:44:20;;;;;;;1.97;1.60;;;20.60;47.90;;;;;;5053002;28;20454;-79
2021/05/29 11:46:47;;;;;;;1.80;1.00;;;20.70;47.90;;;;;;5053567;28;20434;-78
2021/05/29 11:49:14;;;;;;;1.10;1.10;;;20.80;46.60;;;;;;5053256;28;20446;-77
2021/05/29 11:51:41;;;;;;;1.00;1.00;;;20.80;48.30;;;;;;5053156;28;20520;-77
2021/05/29 11:54:11;;;;;;;1.20;1.10;;;20.80;46.60;;;;;;5054408;28;20464;-77
2021/05/29 11:56:38;;;;;;;1.20;1.10;;;20.50;47.10;;;;;;5057492;28;20532;-82
2021/05/29 11:59:07;;;;;;;1.37;0.90;;;20.30;46.50;;;;;;5057422;28;20477;-82
2021/05/29 12:01:34;;;;;;;1.07;1.07;;;20.40;47.20;;;;;;5057004;28;20990;-82
2021/05/29 12:04:04;;;;;;;0.87;0.87;;;20.30;44.40;;;;;;5057510;28;20620;-82
2021/05/29 12:06:43;;;;;;;1.07;1.00;;;20.30;46.80;;;;;;5057337;28;20941;-82
2021/05/29 12:09:12;;;;;;;0.80;0.80;;;20.30;45.10;;;;;;5057602;28;20434;-77
2021/05/29 12:11:41;;;;;;;0.80;0.80;;;20.30;46.30;;;;;;5057118;28;20471;-77
2021/05/29 12:14:11;;;;;;;0.97;0.90;;;20.10;46.90;;;;;;5057126;28;20480;-77
2021/05/29 12:16:40;;;;;;;0.90;0.90;;;20.00;48.20;;;;;;5057862;28;20488;-78
2021/05/29 12:19:07;;;;;;;6.53;1.30;;;20.00;49.30;;;;;;5057024;28;20484;-77
2021/05/29 12:21:50;;;;;;;0.90;0.90;;;20.20;45.00;;;;;;5056547;28;20474;-78
2021/05/29 12:24:18;;;;;;;0.80;0.80;;;20.10;45.80;;;;;;5057162;28;20483;-77
2021/05/29 12:26:45;;;;;;;1.30;0.87;;;20.10;47.00;;;;;;5056550;28;20449;-77
2021/05/29 12:29:13;;;;;;;0.90;0.90;;;20.10;45.40;;;;;;5056741;28;20438;-78
2021/05/29 12:31:50;;;;;;;2.97;1.00;;;20.00;45.30;;;;;;5056512;28;20465;-78
2021/05/29 12:34:17;;;;;;;1.27;0.70;;;20.00;45.40;;;;;;5056738;28;20422;-77
2021/05/29 12:37:03;;;;;;;0.70;0.70;;;20.00;45.70;;;;;;5056808;28;20445;-81
2021/05/29 12:39:49;;;;;;;1.07;0.97;;;20.00;45.30;;;;;;5056795;28;20535;-79
2021/05/29 12:42:42;;;;;;;2.03;0.77;;;20.10;44.60;;;;;;5056609;28;20430;-77
2021/05/29 12:45:16;;;;;;;0.80;0.63;;;20.20;42.90;;;;;;5054132;28;20456;-78
2021/05/29 12:47:51;;;;;;;0.80;0.80;;;20.20;42.10;;;;;;5056504;28;20508;-77
2021/05/29 12:50:18;;;;;;;0.70;0.70;;;20.00;41.60;;;;;;5056379;28;20473;-78
2021/05/29 12:52:44;;;;;;;0.80;0.70;;;19.80;41.20;;;;;;5056242;28;20945;-78
2021/05/29 12:55:23;;;;;;;0.70;0.70;;;19.60;42.30;;;;;;5056095;28;20967;-78
2021/05/29 12:57:49;;;;;;;0.90;0.90;;;19.40;42.10;;;;;;5056251;28;20501;-78
2021/05/29 13:00:20;;;;;;;0.70;0.70;;;19.20;41.20;;;;;;5055881;28;21147;-80
2021/05/29 13:08:39;;;;;;;0.73;0.60;;;19.00;44.40;;;;;;5055758;28;20858;-78